Time;durP1;ratioP1;P1;durP2;ratioP2;P2;SDS_P1;SDS_P2;PMS_P1;PMS_P2;Temp;Humidity;BMP_temperature;BMP_pressure;BME280_temperature;BME280_humidity;BME280_pressure;Samples;Min_cycle;Max_cycle;Signal;HPM_P1;HPM_P2
2023/08/11 00:01:33;;;;;;;7.75;6.97;;;;;;;;;;5060622;28;20037;-83
2023/08/11 00:03:58;;;;;;;8.93;7.00;;;;;;;;;;5044366;28;20048;-84
2023/08/11 00:06:25;;;;;;;11.85;6.88;;;;;;;;;;5059476;28;20038;-84
2023/08/11 00:08:50;;;;;;;10.38;7.43;;;;;;;;;;5061444;28;20237;-83
2023/08/11 00:11:19;;;;;;;12.75;7.85;;;;;;;;;;5043224;28;20029;-84
2023/08/11 00:13:45;;;;;;;8.32;7.35;;;;;;;;;;5057691;28;20036;-84
2023/08/11 00:16:10;;;;;;;11.13;8.02;;;;;;;;;;5059400;28;20052;-85
2023/08/11 00:18:35;;;;;;;10.07;7.07;;;;;;;;;;5059425;28;20037;-85
2023/08/11 00:21:00;;;;;;;10.45;7.95;;;;;;;;;;5061742;28;20012;-82
2023/08/11 00:23:26;;;;;;;10.38;7.70;;;;;;;;;;5058331;28;20036;-85
2023/08/11 00:25:51;;;;;;;13.63;7.72;;;;;;;;;;5063490;28;20029;-85
2023/08/11 00:28:16;;;;;;;11.82;8.07;;;;;;;;;;5045228;28;20025;-83
2023/08/11 00:30:42;;;;;;;11.57;7.63;;;;;;;;;;5063467;28;20032;-83
2023/08/11 00:33:07;;;;;;;11.65;7.10;;;;;;;;;;5062483;28;20552;-84
2023/08/11 00:35:33;;;;;;;8.48;7.32;;;;;;;;;;5064388;28;20078;-82
2023/08/11 00:37:58;;;;;;;12.68;8.32;;;;;;;;;;5062782;28;20058;-83
2023/08/11 00:40:24;;;;;;;13.02;8.43;;;;;;;;;;5060837;28;20120;-80
2023/08/11 00:42:50;;;;;;;15.00;8.30;;;;;;;;;;5060939;28;20547;-83
2023/08/11 00:45:16;;;;;;;13.45;8.45;;;;;;;;;;5061885;28;20081;-83
2023/08/11 00:47:42;;;;;;;16.83;8.38;;;;;;;;;;5041931;28;20033;-84
2023/08/11 00:50:11;;;;;;;10.88;8.07;;;;;;;;;;5059663;28;20151;-83
2023/08/11 00:52:38;;;;;;;14.00;8.98;;;;;;;;;;5059586;28;20053;-85
2023/08/11 00:55:04;;;;;;;15.82;7.95;;;;;;;;;;5057447;28;20048;-85
2023/08/11 00:57:30;;;;;;;9.35;7.70;;;;;;;;;;5058577;28;20500;-86
2023/08/11 00:59:56;;;;;;;9.98;7.82;;;;;;;;;;5058657;28;20040;-85
2023/08/11 01:02:21;;;;;;;10.18;7.93;;;;;;;;;;5039458;28;20407;-86
2023/08/11 01:04:48;;;;;;;10.48;8.18;;;;;;;;;;5056099;28;20021;-84
2023/08/11 01:07:31;;;;;;;17.27;7.82;;;;;;;;;;5055020;28;20036;-84
2023/08/11 01:10:15;;;;;;;10.20;7.55;;;;;;;;;;5054999;28;20033;-84
2023/08/11 01:12:53;;;;;;;12.57;7.85;;;;;;;;;;5055209;28;20053;-86
2023/08/11 01:15:51;;;;;;;9.73;7.03;;;;;;;;;;5056358;28;20033;-83
2023/08/11 01:18:18;;;;;;;9.93;7.50;;;;;;;;;;5056516;28;20083;-87
2023/08/11 01:20:45;;;;;;;8.85;7.72;;;;;;;;;;5060565;28;20069;-87
2023/08/11 01:23:19;;;;;;;15.40;8.27;;;;;;;;;;5057606;28;20040;-84
2023/08/11 01:25:44;;;;;;;11.18;7.88;;;;;;;;;;5041298;28;20491;-86
2023/08/11 01:28:10;;;;;;;9.65;7.30;;;;;;;;;;5053421;28;20039;-85
2023/08/11 01:30:36;;;;;;;10.52;7.60;;;;;;;;;;5054443;28;20257;-83
2023/08/11 01:33:02;;;;;;;14.65;7.28;;;;;;;;;;5056388;28;20025;-83
2023/08/11 01:35:27;;;;;;;6.85;6.05;;;;;;;;;;5055471;28;20045;-83
2023/08/11 01:37:53;;;;;;;8.77;6.32;;;;;;;;;;5054560;28;20036;-84
2023/08/11 01:40:18;;;;;;;7.55;6.35;;;;;;;;;;5053450;28;20037;-85
2023/08/11 01:42:44;;;;;;;8.18;6.70;;;;;;;;;;5053901;28;20044;-81
2023/08/11 01:45:13;;;;;;;8.48;6.45;;;;;;;;;;5054131;28;20009;-82
2023/08/11 01:47:41;;;;;;;9.80;6.90;;;;;;;;;;5054379;28;20031;-83
2023/08/11 01:50:08;;;;;;;11.63;7.47;;;;;;;;;;5052119;28;20055;-84
2023/08/11 01:52:39;;;;;;;11.93;7.75;;;;;;;;;;5036237;28;20112;-80
2023/08/11 01:55:06;;;;;;;10.88;7.75;;;;;;;;;;5052135;28;20040;-84
2023/08/11 01:57:32;;;;;;;9.32;7.82;;;;;;;;;;5033573;28;20064;-85
2023/08/11 01:59:57;;;;;;;10.75;7.93;;;;;;;;;;5035804;28;20021;-85
2023/08/11 02:02:23;;;;;;;10.77;7.50;;;;;;;;;;5054308;28;20494;-84
2023/08/11 02:04:48;;;;;;;11.70;9.00;;;;;;;;;;5055400;28;20071;-84
2023/08/11 02:07:14;;;;;;;11.52;8.73;;;;;;;;;;5038100;28;20430;-84
2023/08/11 02:09:39;;;;;;;16.08;9.15;;;;;;;;;;5038741;28;20112;-82
2023/08/11 02:12:05;;;;;;;10.50;8.20;;;;;;;;;;5038291;28;20040;-84
2023/08/11 02:14:31;;;;;;;10.50;8.15;;;;;;;;;;5056117;28;20479;-85
2023/08/11 02:16:57;;;;;;;16.52;7.85;;;;;;;;;;5055089;28;20395;-86
2023/08/11 02:19:22;;;;;;;11.90;8.32;;;;;;;;;;5037619;28;20029;-83
2023/08/11 02:21:47;;;;;;;11.25;7.85;;;;;;;;;;5054316;28;20032;-85
2023/08/11 02:24:13;;;;;;;12.05;7.60;;;;;;;;;;5055974;28;20104;-84
2023/08/11 02:26:38;;;;;;;10.13;7.15;;;;;;;;;;5056372;28;20028;-84
2023/08/11 02:29:03;;;;;;;7.70;6.25;;;;;;;;;;5057935;28;20067;-86
2023/08/11 02:31:32;;;;;;;8.93;7.10;;;;;;;;;;5056722;28;20525;-86
2023/08/11 02:33:57;;;;;;;9.20;7.45;;;;;;;;;;5039364;28;20029;-84
2023/08/11 02:36:23;;;;;;;8.90;6.63;;;;;;;;;;5054007;28;20051;-83
2023/08/11 02:38:49;;;;;;;10.77;6.93;;;;;;;;;;5057957;28;20043;-86
2023/08/11 02:41:14;;;;;;;11.90;6.97;;;;;;;;;;5040257;28;20434;-83
2023/08/11 02:43:40;;;;;;;12.02;6.80;;;;;;;;;;5056882;28;20045;-84
2023/08/11 02:46:08;;;;;;;9.38;7.45;;;;;;;;;;5037839;28;20041;-86
2023/08/11 02:48:38;;;;;;;9.80;7.00;;;;;;;;;;5059019;28;20079;-86
2023/08/11 02:51:04;;;;;;;11.25;7.28;;;;;;;;;;5059155;28;20016;-85
2023/08/11 02:53:29;;;;;;;8.07;6.72;;;;;;;;;;5056559;28;20021;-84
2023/08/11 02:55:55;;;;;;;12.07;6.55;;;;;;;;;;5051180;28;20049;-86
2023/08/11 02:58:20;;;;;;;8.60;6.68;;;;;;;;;;5056704;28;20040;-86
2023/08/11 03:00:47;;;;;;;8.70;6.97;;;;;;;;;;5059115;28;20506;-85
2023/08/11 03:03:12;;;;;;;9.23;7.15;;;;;;;;;;5055687;28;20013;-86
2023/08/11 03:05:38;;;;;;;11.43;6.82;;;;;;;;;;5057485;28;20031;-85
2023/08/11 03:08:03;;;;;;;15.93;6.75;;;;;;;;;;5051379;28;20067;-86
2023/08/11 03:10:29;;;;;;;7.38;6.38;;;;;;;;;;5058663;28;20028;-84
2023/08/11 03:12:54;;;;;;;7.00;6.25;;;;;;;;;;5057266;28;20041;-85
2023/08/11 03:15:20;;;;;;;8.52;6.22;;;;;;;;;;5042862;28;20108;-85
2023/08/11 03:17:45;;;;;;;10.52;6.70;;;;;;;;;;5062041;28;20033;-86
2023/08/11 03:20:15;;;;;;;8.65;6.90;;;;;;;;;;5045685;28;20033;-86
2023/08/11 03:22:42;;;;;;;9.57;7.05;;;;;;;;;;5060668;28;20078;-86
2023/08/11 03:25:09;;;;;;;10.32;6.75;;;;;;;;;;5041916;28;20428;-85
2023/08/11 03:27:34;;;;;;;10.13;7.22;;;;;;;;;;5062962;28;20052;-84
2023/08/11 03:30:00;;;;;;;9.23;7.05;;;;;;;;;;5041706;28;20531;-84
2023/08/11 03:32:25;;;;;;;11.02;7.53;;;;;;;;;;5069220;22;20060;-79
2023/08/11 03:34:50;;;;;;;10.18;7.20;;;;;;;;;;5042995;28;20045;-79
2023/08/11 03:37:16;;;;;;;11.20;7.47;;;;;;;;;;5041226;28;20479;-80
2023/08/11 03:39:41;;;;;;;15.57;7.88;;;;;;;;;;5042530;28;20544;-80
2023/08/11 03:42:07;;;;;;;9.88;7.53;;;;;;;;;;5048679;28;20025;-80
2023/08/11 03:44:32;;;;;;;21.52;8.63;;;;;;;;;;5041947;28;20032;-79
2023/08/11 03:46:57;;;;;;;8.93;7.45;;;;;;;;;;5029670;28;20068;-80
2023/08/11 03:49:23;;;;;;;10.27;7.43;;;;;;;;;;5040297;28;20658;-80
2023/08/11 03:51:48;;;;;;;9.60;6.68;;;;;;;;;;5043175;28;20144;-81
2023/08/11 03:54:13;;;;;;;11.98;6.68;;;;;;;;;;5021232;28;20044;-80
2023/08/11 03:56:39;;;;;;;7.50;6.15;;;;;;;;;;5024947;28;20037;-80
2023/08/11 03:59:04;;;;;;;11.95;7.03;;;;;;;;;;5043242;28;20124;-81
2023/08/11 04:01:30;;;;;;;9.48;6.50;;;;;;;;;;5024951;28;20037;-81
2023/08/11 04:03:55;;;;;;;8.82;6.80;;;;;;;;;;5044337;28;20453;-81
2023/08/11 04:06:20;;;;;;;11.45;7.78;;;;;;;;;;5030999;28;20025;-81
2023/08/11 04:08:46;;;;;;;11.98;8.25;;;;;;;;;;5057882;28;20017;-81
2023/08/11 04:11:12;;;;;;;10.38;6.47;;;;;;;;;;5023300;28;20557;-81
2023/08/11 04:13:37;;;;;;;7.43;6.10;;;;;;;;;;5046694;28;20041;-81
2023/08/11 04:16:03;;;;;;;13.43;7.20;;;;;;;;;;5048824;28;20033;-81
2023/08/11 04:18:28;;;;;;;11.43;8.00;;;;;;;;;;5030870;28;20037;-81
2023/08/11 04:20:53;;;;;;;10.85;8.10;;;;;;;;;;5029765;28;20553;-81
2023/08/11 04:23:18;;;;;;;11.30;7.75;;;;;;;;;;5042257;28;20053;-80
2023/08/11 04:25:44;;;;;;;11.18;7.60;;;;;;;;;;5021620;28;20040;-80
2023/08/11 04:28:10;;;;;;;8.45;6.53;;;;;;;;;;5030460;28;20033;-80
2023/08/11 04:30:35;;;;;;;12.57;7.07;;;;;;;;;;5059397;28;20353;-80
2023/08/11 04:33:00;;;;;;;8.05;6.68;;;;;;;;;;5030217;28;20390;-80
2023/08/11 04:35:26;;;;;;;8.45;6.80;;;;;;;;;;5046702;28;20045;-80
2023/08/11 04:37:51;;;;;;;8.50;6.57;;;;;;;;;;5043207;28;20531;-80
2023/08/11 04:40:17;;;;;;;8.35;6.18;;;;;;;;;;5043464;28;20041;-81
2023/08/11 04:42:43;;;;;;;7.43;5.90;;;;;;;;;;5027783;28;20033;-80
2023/08/11 04:45:09;;;;;;;12.82;5.88;;;;;;;;;;5030005;28;20097;-81
2023/08/11 04:47:35;;;;;;;6.55;5.00;;;;;;;;;;5030721;28;20025;-81
2023/08/11 04:50:00;;;;;;;7.55;4.72;;;;;;;;;;5026721;28;20448;-81
2023/08/11 04:52:26;;;;;;;4.80;4.30;;;;;;;;;;5024099;28;20513;-81
2023/08/11 04:54:51;;;;;;;5.35;4.60;;;;;;;;;;5045224;28;20090;-80
2023/08/11 04:57:17;;;;;;;6.05;3.83;;;;;;;;;;5030668;28;20410;-81
2023/08/11 04:59:42;;;;;;;5.93;3.80;;;;;;;;;;5025108;28;20029;-81
2023/08/11 05:02:07;;;;;;;5.18;4.40;;;;;;;;;;5029675;28;20039;-81
2023/08/11 05:04:33;;;;;;;7.40;3.20;;;;;;;;;;5026101;28;20037;-80
2023/08/11 05:06:59;;;;;;;6.25;3.80;;;;;;;;;;5040284;28;20549;-81
2023/08/11 05:09:24;;;;;;;4.68;3.30;;;;;;;;;;5029880;28;20112;-81
2023/08/11 05:11:50;;;;;;;5.53;3.30;;;;;;;;;;5033169;28;20938;-81
2023/08/11 05:14:17;;;;;;;10.82;4.45;;;;;;;;;;5024866;28;20042;-81
2023/08/11 05:16:43;;;;;;;5.25;2.95;;;;;;;;;;5025840;28;20098;-81
2023/08/11 05:19:08;;;;;;;2.90;2.70;;;;;;;;;;5045652;28;20034;-81
2023/08/11 05:21:34;;;;;;;6.32;3.50;;;;;;;;;;5051528;28;20063;-81
2023/08/11 05:23:59;;;;;;;6.72;2.80;;;;;;;;;;5027174;28;20496;-81
2023/08/11 05:26:24;;;;;;;3.50;3.20;;;;;;;;;;5029681;28;20053;-81
2023/08/11 05:28:50;;;;;;;3.53;2.60;;;;;;;;;;5044763;28;20119;-81
2023/08/11 05:31:15;;;;;;;3.00;2.70;;;;;;;;;;5021423;28;20034;-81
2023/08/11 05:33:41;;;;;;;6.60;2.80;;;;;;;;;;5027986;28;20033;-81
2023/08/11 05:36:07;;;;;;;4.70;2.88;;;;;;;;;;5027358;28;20075;-81
2023/08/11 05:38:32;;;;;;;4.88;2.85;;;;;;;;;;5028289;28;20027;-81
2023/08/11 05:40:57;;;;;;;6.97;2.95;;;;;;;;;;5025231;28;20037;-81
2023/08/11 05:43:23;;;;;;;4.60;2.60;;;;;;;;;;5025841;28;20044;-81
2023/08/11 05:45:48;;;;;;;3.67;2.80;;;;;;;;;;5026765;28;20372;-81
2023/08/11 05:48:13;;;;;;;3.92;2.47;;;;;;;;;;5027800;28;20035;-82
2023/08/11 05:50:39;;;;;;;2.88;2.50;;;;;;;;;;5041854;28;20025;-81
2023/08/11 05:53:05;;;;;;;4.15;2.55;;;;;;;;;;5047507;28;20040;-82
2023/08/11 05:55:30;;;;;;;2.53;2.33;;;;;;;;;;5046573;28;20043;-81
2023/08/11 05:57:55;;;;;;;3.30;2.53;;;;;;;;;;5027284;28;20039;-82
2023/08/11 06:00:21;;;;;;;2.55;2.35;;;;;;;;;;5027713;28;20465;-81
2023/08/11 06:02:46;;;;;;;6.47;2.45;;;;;;;;;;5030692;28;20032;-81
2023/08/11 06:05:12;;;;;;;2.30;2.10;;;;;;;;;;5042333;28;20111;-81
2023/08/11 06:07:39;;;;;;;3.60;2.42;;;;;;;;;;5026418;28;20067;-82
2023/08/11 06:10:05;;;;;;;2.47;2.28;;;;;;;;;;5029818;28;20132;-82
2023/08/11 06:12:30;;;;;;;2.47;2.05;;;;;;;;;;5046189;28;20061;-82
2023/08/11 06:14:56;;;;;;;3.08;2.38;;;;;;;;;;5031824;28;20510;-81
2023/08/11 06:17:21;;;;;;;2.20;2.10;;;;;;;;;;5027826;28;20167;-82
2023/08/11 06:19:47;;;;;;;4.75;2.58;;;;;;;;;;5022172;28;20043;-82
2023/08/11 06:22:13;;;;;;;2.63;2.35;;;;;;;;;;5023735;28;20028;-82
2023/08/11 06:24:38;;;;;;;3.15;2.30;;;;;;;;;;5046190;28;20056;-81
2023/08/11 06:27:04;;;;;;;2.28;2.17;;;;;;;;;;5027279;28;20017;-82
2023/08/11 06:29:29;;;;;;;2.33;2.20;;;;;;;;;;5027544;28;20301;-82
2023/08/11 06:31:54;;;;;;;5.65;2.45;;;;;;;;;;5032018;28;20047;-82
2023/08/11 06:34:21;;;;;;;3.15;2.30;;;;;;;;;;5046412;28;20036;-82
2023/08/11 06:36:46;;;;;;;2.60;2.17;;;;;;;;;;5044333;28;20048;-81
2023/08/11 06:39:12;;;;;;;2.42;2.22;;;;;;;;;;5023032;28;20021;-82
2023/08/11 06:41:38;;;;;;;2.88;2.55;;;;;;;;;;5025857;28;20399;-82
2023/08/11 06:44:04;;;;;;;4.95;2.47;;;;;;;;;;5039967;28;20029;-82
2023/08/11 06:46:30;;;;;;;3.10;2.85;;;;;;;;;;5041261;28;20034;-82
2023/08/11 06:48:55;;;;;;;2.90;2.60;;;;;;;;;;5030470;28;20025;-82
2023/08/11 06:51:20;;;;;;;2.63;2.40;;;;;;;;;;5026219;28;20024;-82
2023/08/11 06:53:46;;;;;;;4.28;2.38;;;;;;;;;;5045750;28;20077;-82
2023/08/11 06:56:11;;;;;;;2.40;2.20;;;;;;;;;;5047255;28;20044;-82
2023/08/11 06:58:36;;;;;;;2.63;2.38;;;;;;;;;;5028810;28;20037;-82
2023/08/11 07:01:03;;;;;;;3.47;2.20;;;;;;;;;;5022729;28;20483;-82
2023/08/11 07:03:28;;;;;;;2.33;2.13;;;;;;;;;;5028799;28;20040;-82
2023/08/11 07:05:54;;;;;;;2.40;2.20;;;;;;;;;;5030632;28;20387;-81
2023/08/11 07:08:20;;;;;;;2.25;2.10;;;;;;;;;;5024205;28;20037;-80
2023/08/11 07:10:45;;;;;;;2.40;2.20;;;;;;;;;;5027118;28;20029;-81
2023/08/11 07:13:10;;;;;;;2.35;2.15;;;;;;;;;;5028234;28;20029;-82
2023/08/11 07:15:40;;;;;;;2.33;2.13;;;;;;;;;;5034130;28;20045;-78
2023/08/11 07:18:05;;;;;;;2.30;2.10;;;;;;;;;;5039557;28;20036;-78
2023/08/11 07:20:31;;;;;;;9.32;2.60;;;;;;;;;;5017051;28;20025;-79
2023/08/11 07:22:56;;;;;;;6.15;2.15;;;;;;;;;;5024877;28;20033;-79
2023/08/11 07:25:21;;;;;;;2.47;2.25;;;;;;;;;;5039005;28;20120;-76
2023/08/11 07:27:46;;;;;;;3.30;2.22;;;;;;;;;;5014458;28;20571;-76
2023/08/11 07:30:12;;;;;;;2.88;2.30;;;;;;;;;;5037925;28;20013;-77
2023/08/11 07:32:37;;;;;;;2.55;2.08;;;;;;;;;;5033857;28;20033;-77
2023/08/11 07:35:03;;;;;;;2.50;2.10;;;;;;;;;;5042395;28;20040;-77
2023/08/11 07:37:28;;;;;;;6.90;2.40;;;;;;;;;;5037618;28;20033;-77
2023/08/11 07:39:53;;;;;;;2.35;2.13;;;;;;;;;;5036115;28;20482;-77
2023/08/11 07:42:19;;;;;;;2.40;2.20;;;;;;;;;;5018850;28;20028;-77
2023/08/11 07:44:44;;;;;;;2.58;2.30;;;;;;;;;;5043090;28;20053;-77
2023/08/11 07:47:09;;;;;;;5.85;2.42;;;;;;;;;;5035318;28;20544;-78
2023/08/11 07:49:35;;;;;;;3.05;2.50;;;;;;;;;;5033958;28;20029;-77
2023/08/11 07:52:01;;;;;;;3.70;2.20;;;;;;;;;;5032647;28;20045;-77
2023/08/11 07:54:26;;;;;;;2.58;2.38;;;;;;;;;;5034723;28;20766;-78
2023/08/11 07:56:51;;;;;;;2.13;2.03;;;;;;;;;;5024507;28;20432;-77
2023/08/11 07:59:17;;;;;;;5.85;2.20;;;;;;;;;;5031833;28;20037;-77
2023/08/11 08:01:42;;;;;;;2.53;2.33;;;;;;;;;;5036027;28;20041;-78
2023/08/11 08:04:07;;;;;;;2.30;2.10;;;;;;;;;;5028056;28;20033;-78
2023/08/11 08:06:35;;;;;;;2.85;2.40;;;;;;;;;;5036262;28;20036;-78
2023/08/11 08:09:02;;;;;;;2.33;2.13;;;;;;;;;;5053932;28;20104;-78
2023/08/11 08:11:28;;;;;;;2.60;2.40;;;;;;;;;;5035625;28;20095;-78
2023/08/11 08:13:53;;;;;;;2.30;2.10;;;;;;;;;;5019820;28;20029;-78
2023/08/11 08:16:19;;;;;;;2.92;2.30;;;;;;;;;;5039297;28;20051;-77
2023/08/11 08:18:44;;;;;;;1.98;1.88;;;;;;;;;;5039092;28;20038;-78
2023/08/11 08:21:11;;;;;;;2.40;2.20;;;;;;;;;;5032208;28;20024;-78
2023/08/11 08:23:37;;;;;;;2.20;2.00;;;;;;;;;;5045797;28;20459;-78
2023/08/11 08:26:03;;;;;;;2.53;2.33;;;;;;;;;;5036283;28;20041;-78
2023/08/11 08:28:28;;;;;;;2.38;2.20;;;;;;;;;;5040174;28;20044;-78
2023/08/11 08:30:54;;;;;;;3.15;2.33;;;;;;;;;;5039800;28;20060;-78
2023/08/11 08:33:19;;;;;;;5.40;2.00;;;;;;;;;;5041930;28;20094;-78
2023/08/11 08:35:44;;;;;;;3.55;2.42;;;;;;;;;;5036193;28;20033;-78
2023/08/11 08:38:09;;;;;;;2.42;2.22;;;;;;;;;;5037153;28;20526;-78
2023/08/11 08:40:35;;;;;;;4.53;2.40;;;;;;;;;;5024423;28;20037;-77
2023/08/11 08:43:05;;;;;;;2.42;2.22;;;;;;;;;;5014305;28;20038;-78
2023/08/11 08:45:31;;;;;;;2.42;2.05;;;;;;;;;;5034608;28;20048;-77
2023/08/11 08:47:59;;;;;;;3.47;2.60;;;;;;;;;;5029830;28;20024;-77
2023/08/11 08:50:24;;;;;;;2.40;2.20;;;;;;;;;;5031666;28;20870;-78
2023/08/11 08:52:52;;;;;;;2.50;2.30;;;;;;;;;;5035801;28;20111;-77
2023/08/11 08:55:18;;;;;;;8.35;2.63;;;;;;;;;;5040942;28;20034;-77
2023/08/11 08:57:45;;;;;;;2.35;2.15;;;;;;;;;;5025478;28;20568;-79
2023/08/11 09:00:11;;;;;;;2.53;2.33;;;;;;;;;;5021964;28;20095;-78
2023/08/11 09:02:37;;;;;;;3.10;2.20;;;;;;;;;;5038121;28;20490;-78
2023/08/11 09:05:02;;;;;;;2.65;2.45;;;;;;;;;;5029502;28;20059;-78
2023/08/11 09:07:28;;;;;;;2.42;2.22;;;;;;;;;;5033640;28;20406;-77
2023/08/11 09:09:53;;;;;;;6.30;2.38;;;;;;;;;;5035277;28;20064;-78
2023/08/11 09:12:18;;;;;;;2.33;2.10;;;;;;;;;;5029908;28;20026;-77
2023/08/11 09:14:44;;;;;;;2.40;2.20;;;;;;;;;;5036046;28;20450;-78
2023/08/11 09:17:10;;;;;;;4.40;2.58;;;;;;;;;;5036682;28;20585;-78
2023/08/11 09:19:37;;;;;;;4.20;2.35;;;;;;;;;;5013821;28;20398;-77
2023/08/11 09:22:08;;;;;;;4.32;2.30;;;;;;;;;;5024943;28;20041;-77
2023/08/11 09:24:34;;;;;;;2.97;2.33;;;;;;;;;;5017424;28;20498;-78
2023/08/11 09:26:59;;;;;;;3.55;2.30;;;;;;;;;;5032242;28;20028;-77
2023/08/11 09:29:25;;;;;;;2.67;1.92;;;;;;;;;;5035695;28;20501;-78
2023/08/11 09:31:54;;;;;;;2.40;2.17;;;;;;;;;;5033946;28;20041;-77
2023/08/11 09:34:19;;;;;;;2.65;2.28;;;;;;;;;;5031985;28;20036;-77
2023/08/11 09:36:48;;;;;;;6.18;2.47;;;;;;;;;;5035999;28;20038;-78
2023/08/11 09:39:14;;;;;;;2.67;2.30;;;;;;;;;;5014152;28;20497;-77
2023/08/11 09:41:48;;;;;;;7.85;2.35;;;;;;;;;;5032103;28;20368;-77
2023/08/11 09:44:15;;;;;;;6.03;2.38;;;;;;;;;;5019546;28;20052;-77
2023/08/11 09:46:42;;;;;;;2.40;2.20;;;;;;;;;;5019158;28;20499;-77
2023/08/11 09:49:08;;;;;;;4.65;2.30;;;;;;;;;;5031544;28;20490;-77
2023/08/11 09:51:37;;;;;;;6.20;2.47;;;;;;;;;;5036391;28;20038;-77
2023/08/11 09:54:06;;;;;;;2.50;2.30;;;;;;;;;;5023142;28;20104;-77
2023/08/11 09:56:37;;;;;;;2.63;2.33;;;;;;;;;;5038950;28;20072;-78
2023/08/11 09:59:04;;;;;;;2.40;2.20;;;;;;;;;;5020437;28;20041;-77
2023/08/11 10:01:33;;;;;;;3.20;2.25;;;;;;;;;;5035245;28;20057;-77
2023/08/11 10:04:01;;;;;;;2.15;2.05;;;;;;;;;;5041344;28;20132;-77
2023/08/11 10:06:29;;;;;;;2.92;2.10;;;;;;;;;;5040503;28;20033;-77
2023/08/11 10:08:57;;;;;;;2.08;1.88;;;;;;;;;;5042566;28;20040;-77
2023/08/11 10:11:24;;;;;;;1.90;1.80;;;;;;;;;;5041284;28;20795;-77
2023/08/11 10:13:50;;;;;;;2.75;1.80;;;;;;;;;;5038755;28;20061;-77
2023/08/11 10:16:17;;;;;;;5.07;1.60;;;;;;;;;;5041411;28;20048;-77
2023/08/11 10:18:43;;;;;;;1.85;1.65;;;;;;;;;;5038820;28;20033;-77
2023/08/11 10:21:09;;;;;;;1.65;1.55;;;;;;;;;;5040000;28;20016;-77
2023/08/11 10:23:36;;;;;;;2.13;1.92;;;;;;;;;;5042645;28;20486;-77
2023/08/11 10:26:02;;;;;;;3.00;2.10;;;;;;;;;;5044461;28;20090;-77
2023/08/11 10:28:27;;;;;;;2.03;1.80;;;;;;;;;;5022030;28;20483;-77
2023/08/11 10:30:57;;;;;;;1.60;1.50;;;;;;;;;;5040128;28;20088;-77
2023/08/11 10:33:22;;;;;;;1.80;1.70;;;;;;;;;;5039457;28;20104;-77
2023/08/11 10:35:51;;;;;;;2.30;1.95;;;;;;;;;;5043492;28;20450;-77
2023/08/11 10:38:43;;;;;;;2.45;2.25;;;;;;;;;;5041273;28;20033;-77
2023/08/11 10:41:09;;;;;;;2.08;1.88;;;;;;;;;;5028832;28;20503;-77
2023/08/11 10:43:41;;;;;;;3.00;1.85;;;;;;;;;;5038483;28;20044;-77
2023/08/11 10:46:33;;;;;;;2.17;2.00;;;;;;;;;;5041579;28;20124;-77
2023/08/11 10:49:21;;;;;;;1.90;1.80;;;;;;;;;;5038495;28;20092;-77
2023/08/11 10:51:46;;;;;;;3.35;2.03;;;;;;;;;;5033020;28;20040;-77
2023/08/11 10:54:22;;;;;;;2.10;2.00;;;;;;;;;;5040379;28;20471;-77
2023/08/11 10:56:47;;;;;;;1.90;1.80;;;;;;;;;;5052531;28;20164;-77
2023/08/11 10:59:19;;;;;;;2.47;2.17;;;;;;;;;;5041656;28;20546;-77
2023/08/11 11:01:50;;;;;;;2.22;2.10;;;;;;;;;;5041471;28;20033;-77
2023/08/11 11:04:18;;;;;;;2.75;2.10;;;;;;;;;;5041413;28;20099;-77
2023/08/11 11:06:45;;;;;;;3.50;1.98;;;;;;;;;;5042209;28;20390;-77
2023/08/11 11:09:11;;;;;;;2.78;2.20;;;;;;;;;;5017294;28;20422;-77
2023/08/11 11:11:37;;;;;;;2.28;2.08;;;;;;;;;;5038854;28;20076;-77
2023/08/11 11:14:08;;;;;;;2.03;1.90;;;;;;;;;;5038849;28;20029;-77
2023/08/11 11:16:33;;;;;;;2.10;2.00;;;;;;;;;;5009893;28;20621;-77
2023/08/11 11:19:04;;;;;;;2.67;2.45;;;;;;;;;;5041936;28;20148;-77
2023/08/11 11:21:30;;;;;;;2.40;2.20;;;;;;;;;;5031017;28;20394;-77
2023/08/11 11:23:56;;;;;;;2.03;1.92;;;;;;;;;;5040797;28;20479;-77
2023/08/11 11:26:25;;;;;;;2.42;1.98;;;;;;;;;;5039955;28;20056;-77
2023/08/11 11:28:52;;;;;;;2.15;1.90;;;;;;;;;;5034881;28;20044;-77
2023/08/11 11:31:19;;;;;;;5.00;2.00;;;;;;;;;;5034966;28;20033;-77
2023/08/11 11:33:45;;;;;;;2.35;2.15;;;;;;;;;;5036751;28;20509;-77
2023/08/11 11:36:12;;;;;;;2.55;2.17;;;;;;;;;;5062076;28;20023;-78
2023/08/11 11:38:38;;;;;;;2.00;1.90;;;;;;;;;;5044783;28;20021;-77
2023/08/11 11:41:03;;;;;;;2.28;2.17;;;;;;;;;;5044927;28;20037;-77
2023/08/11 11:43:28;;;;;;;2.90;1.90;;;;;;;;;;5046026;28;20317;-77
2023/08/11 11:45:55;;;;;;;2.70;2.30;;;;;;;;;;5039867;28;20037;-77
2023/08/11 11:48:20;;;;;;;1.98;1.88;;;;;;;;;;5032435;28;20072;-77
2023/08/11 11:50:46;;;;;;;3.58;2.00;;;;;;;;;;5045107;28;20116;-77
2023/08/11 11:53:12;;;;;;;2.30;2.10;;;;;;;;;;5044397;28;20040;-77
2023/08/11 11:55:44;;;;;;;4.25;2.08;;;;;;;;;;5044735;28;20039;-77
2023/08/11 11:58:11;;;;;;;1.95;1.70;;;;;;;;;;5027173;28;20352;-77
2023/08/11 12:00:37;;;;;;;2.15;2.03;;;;;;;;;;5035320;28;20095;-77
2023/08/11 12:03:03;;;;;;;2.75;1.88;;;;;;;;;;5042531;28;20052;-77
2023/08/11 12:05:28;;;;;;;8.40;2.47;;;;;;;;;;5040781;28;20040;-77
2023/08/11 12:07:53;;;;;;;3.40;1.90;;;;;;;;;;5036100;28;20037;-77
2023/08/11 12:10:30;;;;;;;2.00;1.90;;;;;;;;;;5041692;28;20090;-78
2023/08/11 12:13:03;;;;;;;2.65;2.17;;;;;;;;;;5042044;28;20051;-77
2023/08/11 12:15:28;;;;;;;2.70;2.00;;;;;;;;;;5042076;28;20033;-77
2023/08/11 12:17:53;;;;;;;2.17;1.98;;;;;;;;;;5043822;28;20017;-77
2023/08/11 12:20:21;;;;;;;2.00;1.90;;;;;;;;;;5022252;28;20048;-77
2023/08/11 12:22:46;;;;;;;1.83;1.73;;;;;;;;;;5041270;28;20529;-77
2023/08/11 12:25:12;;;;;;;2.85;2.15;;;;;;;;;;5025406;28;20053;-77
2023/08/11 12:27:38;;;;;;;2.55;2.28;;;;;;;;;;5038885;28;20495;-77
2023/08/11 12:30:04;;;;;;;2.25;2.05;;;;;;;;;;5025256;28;20025;-77
2023/08/11 12:32:29;;;;;;;2.40;2.20;;;;;;;;;;5030347;28;20037;-77
2023/08/11 12:34:55;;;;;;;2.17;2.00;;;;;;;;;;5025448;28;20039;-77
2023/08/11 12:37:20;;;;;;;4.82;1.98;;;;;;;;;;5040004;28;20041;-77
2023/08/11 12:39:45;;;;;;;2.38;2.17;;;;;;;;;;5037595;28;20039;-77
2023/08/11 12:42:11;;;;;;;5.30;2.10;;;;;;;;;;5040437;28;20426;-77
2023/08/11 12:44:38;;;;;;;1.88;1.77;;;;;;;;;;5019580;28;20050;-77
2023/08/11 12:47:04;;;;;;;2.30;2.10;;;;;;;;;;5038863;28;20079;-77
2023/08/11 12:49:30;;;;;;;1.80;1.70;;;;;;;;;;5043495;28;20036;-77
2023/08/11 12:51:55;;;;;;;2.45;2.00;;;;;;;;;;5040028;28;20030;-77
2023/08/11 12:54:20;;;;;;;2.20;2.00;;;;;;;;;;5042683;28;20025;-77
2023/08/11 12:56:46;;;;;;;1.80;1.70;;;;;;;;;;5040609;28;20154;-77
2023/08/11 12:59:11;;;;;;;2.38;2.17;;;;;;;;;;5020417;28;20060;-78
2023/08/11 13:01:37;;;;;;;2.00;1.90;;;;;;;;;;5040469;28;20550;-77
2023/08/11 13:04:03;;;;;;;3.38;2.00;;;;;;;;;;5022945;28;20388;-77
2023/08/11 13:06:29;;;;;;;2.22;2.03;;;;;;;;;;5037908;28;20041;-77
2023/08/11 13:08:54;;;;;;;4.22;1.95;;;;;;;;;;5038808;28;20032;-78
2023/08/11 13:11:20;;;;;;;3.88;1.98;;;;;;;;;;5033443;28;20499;-77
2023/08/11 13:13:45;;;;;;;2.75;2.20;;;;;;;;;;5030673;28;20040;-77
2023/08/11 13:16:12;;;;;;;2.10;1.90;;;;;;;;;;5029369;28;20577;-77
2023/08/11 13:18:37;;;;;;;9.07;2.78;;;;;;;;;;5044822;28;20036;-77
2023/08/11 13:21:02;;;;;;;1.80;1.70;;;;;;;;;;5029614;28;20479;-77
2023/08/11 13:23:31;;;;;;;1.83;1.73;;;;;;;;;;5042992;28;20040;-77
2023/08/11 13:25:57;;;;;;;3.33;1.75;;;;;;;;;;5041643;28;20116;-77
2023/08/11 13:28:22;;;;;;;3.35;1.83;;;;;;;;;;5042230;28;20037;-77
2023/08/11 13:30:48;;;;;;;1.90;1.80;;;;;;;;;;5037482;28;20465;-77
2023/08/11 13:33:13;;;;;;;1.90;1.80;;;;;;;;;;5044145;28;20051;-77
2023/08/11 13:35:38;;;;;;;2.00;1.90;;;;;;;;;;5026051;28;20037;-78
2023/08/11 13:38:04;;;;;;;1.80;1.70;;;;;;;;;;5043899;28;20033;-77
2023/08/11 13:40:29;;;;;;;2.03;1.92;;;;;;;;;;5039563;28;20513;-77
2023/08/11 13:42:54;;;;;;;9.95;2.33;;;;;;;;;;5039437;28;20055;-78
2023/08/11 13:45:20;;;;;;;6.25;2.15;;;;;;;;;;5036842;28;20031;-77
2023/08/11 13:47:45;;;;;;;2.25;1.77;;;;;;;;;;5040584;28;20056;-77
2023/08/11 13:50:11;;;;;;;1.98;1.85;;;;;;;;;;5041336;28;20453;-77
2023/08/11 13:52:36;;;;;;;2.08;1.88;;;;;;;;;;5019847;28;20065;-77
2023/08/11 13:55:03;;;;;;;3.78;1.83;;;;;;;;;;5037727;28;20060;-77
2023/08/11 13:57:29;;;;;;;2.00;1.50;;;;;;;;;;5041104;28;20119;-77
2023/08/11 13:59:59;;;;;;;2.00;1.90;;;;;;;;;;5023943;28;20116;-77
2023/08/11 14:02:26;;;;;;;2.45;1.85;;;;;;;;;;5041670;28;20033;-77
2023/08/11 14:04:51;;;;;;;3.55;2.20;;;;;;;;;;5040624;28;20037;-77
2023/08/11 14:07:21;;;;;;;4.03;2.20;;;;;;;;;;5037938;28;20052;-77
2023/08/11 14:09:46;;;;;;;2.28;2.08;;;;;;;;;;5039403;28;20560;-77
2023/08/11 14:12:14;;;;;;;2.45;2.28;;;;;;;;;;5042765;28;20020;-77
2023/08/11 14:14:39;;;;;;;2.00;1.90;;;;;;;;;;5041820;28;20028;-77
2023/08/11 14:17:05;;;;;;;3.92;1.92;;;;;;;;;;5039531;28;20049;-77
2023/08/11 14:19:31;;;;;;;2.10;2.00;;;;;;;;;;5039527;28;20044;-77
2023/08/11 14:21:56;;;;;;;2.20;2.00;;;;;;;;;;5016546;28;20132;-77
2023/08/11 14:24:22;;;;;;;2.15;2.05;;;;;;;;;;5029499;28;20056;-77
2023/08/11 14:26:47;;;;;;;2.30;2.08;;;;;;;;;;5027606;28;20116;-77
2023/08/11 14:29:12;;;;;;;2.88;2.40;;;;;;;;;;5027237;28;20053;-77
2023/08/11 14:31:38;;;;;;;2.10;1.95;;;;;;;;;;5028728;28;20485;-78
2023/08/11 14:34:03;;;;;;;4.70;2.53;;;;;;;;;;5022029;28;20037;-78
2023/08/11 14:36:29;;;;;;;2.28;2.17;;;;;;;;;;5043771;28;20052;-76